Time;durP1;ratioP1;P1;durP2;ratioP2;P2;SDS_P1;SDS_P2;PMS_P1;PMS_P2;Temp;Humidity;BMP_temperature;BMP_pressure;BME280_temperature;BME280_humidity;BME280_pressure;Samples;Min_cycle;Max_cycle;Signal;HPM_P1;HPM_P2
2023/05/22 00:01:25;;;;;;;8.82;7.13;;;17.80;65.60;;;;;;4984130;28;20041;-75
2023/05/22 00:03:51;;;;;;;8.95;6.50;;;17.70;65.90;;;;;;4966012;28;20527;-74
2023/05/22 00:06:17;;;;;;;11.98;7.07;;;17.70;65.90;;;;;;4997314;28;20034;-75
2023/05/22 00:08:43;;;;;;;9.18;6.47;;;17.70;66.10;;;;;;5016798;28;20041;-75
2023/05/22 00:11:08;;;;;;;12.77;8.02;;;17.70;66.20;;;;;;4979152;28;20071;-75
2023/05/22 00:13:34;;;;;;;10.45;7.10;;;17.60;66.30;;;;;;4974820;28;20044;-74
2023/05/22 00:15:59;;;;;;;11.32;6.85;;;17.60;67.20;;;;;;4997002;28;20042;-74
2023/05/22 00:18:25;;;;;;;8.90;6.95;;;17.60;66.50;;;;;;4982395;28;20046;-75
2023/05/22 00:20:52;;;;;;;12.25;6.90;;;17.50;66.40;;;;;;4967837;28;20084;-75
2023/05/22 00:23:17;;;;;;;8.05;6.40;;;17.50;66.50;;;;;;4990719;28;20067;-74
2023/05/22 00:25:43;;;;;;;9.10;6.65;;;17.50;66.60;;;;;;4981080;28;20393;-75
2023/05/22 00:28:10;;;;;;;8.55;6.90;;;17.50;66.60;;;;;;4995070;28;20049;-74
2023/05/22 00:30:35;;;;;;;10.63;7.28;;;17.50;66.70;;;;;;4980871;28;20042;-74
2023/05/22 00:33:01;;;;;;;10.13;7.03;;;17.50;66.80;;;;;;4998884;28;20111;-75
2023/05/22 00:35:27;;;;;;;9.73;7.60;;;17.40;67.50;;;;;;5016614;28;20211;-74
2023/05/22 00:37:53;;;;;;;12.88;6.82;;;17.40;66.80;;;;;;4979859;28;20490;-74
2023/05/22 00:40:18;;;;;;;10.30;7.03;;;17.40;66.80;;;;;;4998694;28;20037;-75
2023/05/22 00:42:44;;;;;;;9.07;6.57;;;17.40;66.90;;;;;;4980803;28;20037;-75
2023/05/22 00:45:10;;;;;;;11.48;7.30;;;17.30;66.90;;;;;;4982264;28;20103;-74
2023/05/22 00:47:36;;;;;;;9.93;7.70;;;17.30;66.90;;;;;;4981923;28;20037;-75
2023/05/22 00:50:02;;;;;;;8.63;6.90;;;17.30;67.10;;;;;;4976957;28;20403;-74
2023/05/22 00:52:28;;;;;;;8.40;6.72;;;17.30;67.20;;;;;;4992716;28;20029;-76
2023/05/22 00:54:53;;;;;;;9.35;7.32;;;17.20;67.30;;;;;;4998463;28;20044;-74
2023/05/22 00:57:19;;;;;;;12.20;7.45;;;17.20;67.50;;;;;;4982337;28;20060;-74
2023/05/22 00:59:45;;;;;;;9.05;7.18;;;17.20;67.60;;;;;;5001451;28;20523;-75
2023/05/22 01:02:12;;;;;;;8.30;7.00;;;17.10;67.70;;;;;;4978493;28;20030;-75
2023/05/22 01:04:37;;;;;;;7.63;6.57;;;17.10;67.70;;;;;;4997841;28;20163;-75
2023/05/22 01:07:04;;;;;;;9.30;7.90;;;17.10;67.70;;;;;;4999933;28;20120;-75
2023/05/22 01:09:30;;;;;;;9.88;6.82;;;17.10;67.80;;;;;;4978129;28;20040;-74
2023/05/22 01:12:19;;;;;;;10.23;7.20;;;17.00;68.00;;;;;;4975971;28;20030;-75
2023/05/22 01:15:07;;;;;;;11.77;7.15;;;17.00;68.40;;;;;;4995177;28;20030;-74
2023/05/22 01:17:39;;;;;;;7.80;6.65;;;16.90;68.40;;;;;;4993623;28;20512;-74
2023/05/22 01:20:23;;;;;;;12.65;8.23;;;16.90;68.20;;;;;;4993398;28;20042;-75
2023/05/22 01:23:11;;;;;;;13.27;7.22;;;16.90;68.20;;;;;;4992098;28;20109;-74
2023/05/22 01:26:47;;;;;;;9.93;8.10;;;16.80;68.70;;;;;;4992701;28;20404;-75
2023/05/22 01:29:40;;;;;;;10.32;7.00;;;16.70;68.90;;;;;;4904476;29;20047;-74
2023/05/22 01:32:05;;;;;;;8.52;6.55;;;16.70;68.70;;;;;;4933021;28;20047;-74
2023/05/22 01:34:31;;;;;;;9.88;7.47;;;16.70;68.60;;;;;;4923964;29;20032;-74
2023/05/22 01:36:57;;;;;;;9.23;7.22;;;16.60;68.60;;;;;;4923199;28;20043;-75
2023/05/22 01:39:22;;;;;;;12.82;8.02;;;16.60;69.00;;;;;;4918700;28;20038;-75
2023/05/22 01:41:48;;;;;;;8.57;6.85;;;16.50;69.10;;;;;;4928228;28;20053;-74
2023/05/22 01:44:14;;;;;;;9.65;6.70;;;16.50;69.30;;;;;;4894164;29;20178;-74
2023/05/22 01:46:40;;;;;;;10.40;7.60;;;16.50;69.50;;;;;;4916221;28;20059;-74
2023/05/22 01:49:06;;;;;;;10.88;8.23;;;16.50;69.60;;;;;;4902819;29;20043;-75
2023/05/22 01:51:50;;;;;;;9.10;7.35;;;16.40;69.70;;;;;;4898619;28;20458;-75
2023/05/22 01:54:36;;;;;;;9.38;7.78;;;16.40;69.90;;;;;;4921156;29;20074;-75
2023/05/22 01:57:15;;;;;;;8.63;7.45;;;16.30;71.20;;;;;;4918431;28;20039;-74
2023/05/22 01:59:44;;;;;;;10.75;7.30;;;16.30;70.10;;;;;;4962219;28;20037;-74
2023/05/22 02:02:10;;;;;;;7.55;6.75;;;16.30;70.00;;;;;;5008891;28;20034;-74
2023/05/22 02:04:37;;;;;;;9.38;7.05;;;16.30;70.00;;;;;;5012629;28;20040;-74
2023/05/22 02:07:03;;;;;;;10.55;6.90;;;16.20;70.00;;;;;;4979244;28;20033;-75
2023/05/22 02:09:30;;;;;;;9.07;6.82;;;16.20;70.10;;;;;;4983348;28;20038;-75
2023/05/22 02:11:56;;;;;;;10.20;7.38;;;16.20;70.10;;;;;;4988314;28;20125;-75
2023/05/22 02:14:22;;;;;;;11.40;7.85;;;16.10;70.00;;;;;;5013584;28;20609;-75
2023/05/22 02:16:47;;;;;;;9.90;6.75;;;16.10;70.10;;;;;;4981761;28;20049;-75
2023/05/22 02:19:14;;;;;;;9.60;7.22;;;16.10;70.40;;;;;;4996050;28;20164;-74
2023/05/22 02:21:39;;;;;;;9.95;7.65;;;16.00;70.40;;;;;;4996731;28;20046;-74
2023/05/22 02:24:05;;;;;;;8.52;6.90;;;16.00;70.50;;;;;;5007747;28;20037;-74
2023/05/22 02:26:30;;;;;;;8.95;7.80;;;16.00;70.60;;;;;;4983673;28;20033;-75
2023/05/22 02:28:56;;;;;;;9.48;7.68;;;16.00;70.80;;;;;;4996718;28;20029;-74
2023/05/22 02:31:21;;;;;;;10.07;8.15;;;15.90;70.80;;;;;;5013702;28;20520;-74
2023/05/22 02:33:47;;;;;;;9.98;7.68;;;15.90;70.70;;;;;;4997154;28;20033;-74
2023/05/22 02:36:13;;;;;;;10.23;7.15;;;15.90;70.90;;;;;;5012607;28;20044;-74
2023/05/22 02:38:38;;;;;;;10.73;7.22;;;15.90;71.00;;;;;;4998570;28;20729;-74
2023/05/22 02:41:04;;;;;;;10.05;7.25;;;15.80;71.00;;;;;;4967312;28;20053;-74
2023/05/22 02:43:30;;;;;;;12.95;7.82;;;15.80;71.00;;;;;;5007937;28;20051;-74
2023/05/22 02:45:55;;;;;;;12.00;7.55;;;15.80;71.30;;;;;;4965806;28;20062;-74
2023/05/22 02:48:21;;;;;;;9.77;7.80;;;15.70;71.30;;;;;;5004818;28;20467;-74
2023/05/22 02:50:47;;;;;;;8.85;7.13;;;15.70;71.40;;;;;;4988104;28;20044;-74
2023/05/22 02:53:14;;;;;;;9.07;7.25;;;15.70;71.40;;;;;;5007891;28;20037;-74
2023/05/22 02:55:40;;;;;;;11.05;7.55;;;15.70;71.30;;;;;;5012837;28;20037;-75
2023/05/22 02:58:10;;;;;;;8.70;6.75;;;15.60;71.30;;;;;;5006188;28;20037;-75
2023/05/22 03:00:36;;;;;;;11.90;6.82;;;15.60;71.30;;;;;;4976563;28;20042;-75
2023/05/22 03:03:02;;;;;;;13.80;7.88;;;15.60;71.30;;;;;;4986503;28;20034;-75
2023/05/22 03:05:28;;;;;;;9.80;6.90;;;15.60;71.40;;;;;;5012909;28;20411;-75
2023/05/22 03:07:53;;;;;;;11.07;7.30;;;15.60;72.40;;;;;;4992586;28;20037;-74
2023/05/22 03:10:19;;;;;;;9.77;6.78;;;15.60;71.60;;;;;;5008658;28;20061;-74
2023/05/22 03:12:44;;;;;;;11.25;7.70;;;15.60;71.50;;;;;;5001905;28;20647;-74
2023/05/22 03:15:10;;;;;;;10.05;7.43;;;15.50;71.60;;;;;;4996263;28;20069;-74
2023/05/22 03:17:35;;;;;;;11.43;7.93;;;15.50;71.60;;;;;;5014583;28;20041;-74
2023/05/22 03:20:02;;;;;;;9.90;7.25;;;15.50;71.70;;;;;;5011116;28;20029;-75
2023/05/22 03:22:28;;;;;;;12.00;6.88;;;15.50;71.80;;;;;;5010172;28;20033;-75
2023/05/22 03:24:53;;;;;;;9.27;6.95;;;15.50;71.80;;;;;;4994445;28;20065;-74
2023/05/22 03:27:19;;;;;;;11.30;7.65;;;15.40;71.70;;;;;;4986970;28;20034;-74
2023/05/22 03:29:44;;;;;;;9.27;7.85;;;15.40;71.90;;;;;;4995358;28;20111;-75
2023/05/22 03:32:10;;;;;;;11.30;7.13;;;15.40;72.10;;;;;;4991276;28;20117;-75
2023/05/22 03:34:35;;;;;;;10.23;7.82;;;15.40;72.30;;;;;;4976799;28;20116;-74
2023/05/22 03:37:01;;;;;;;9.38;7.57;;;15.30;72.10;;;;;;4996128;28;20052;-74
2023/05/22 03:39:26;;;;;;;11.77;7.78;;;15.30;72.40;;;;;;4963364;28;20120;-75
2023/05/22 03:41:52;;;;;;;10.30;7.63;;;15.30;72.50;;;;;;4979875;28;20065;-74
2023/05/22 03:44:17;;;;;;;9.70;6.57;;;15.20;72.40;;;;;;4992408;28;20117;-75
2023/05/22 03:46:43;;;;;;;9.38;6.97;;;15.20;72.40;;;;;;4961902;28;20136;-74
2023/05/22 03:49:08;;;;;;;9.90;7.05;;;15.20;72.40;;;;;;4995170;28;20661;-74
2023/05/22 03:51:34;;;;;;;8.88;6.72;;;15.20;72.40;;;;;;4994513;28;20041;-74
2023/05/22 03:54:00;;;;;;;10.00;6.80;;;15.20;72.80;;;;;;5012504;28;20036;-75
2023/05/22 03:56:28;;;;;;;9.30;6.57;;;15.20;72.40;;;;;;4998086;28;20045;-75
2023/05/22 03:58:53;;;;;;;7.85;6.40;;;15.20;72.40;;;;;;5000614;28;20052;-75
2023/05/22 04:01:19;;;;;;;9.95;6.90;;;15.20;72.30;;;;;;4975754;28;20053;-75
2023/05/22 04:03:45;;;;;;;12.30;7.00;;;15.20;72.30;;;;;;4983554;28;20064;-75
2023/05/22 04:06:12;;;;;;;9.63;7.38;;;15.20;72.30;;;;;;5000649;28;20535;-74
2023/05/22 04:08:38;;;;;;;13.45;8.48;;;15.20;72.40;;;;;;4981415;28;20037;-75
2023/05/22 04:11:04;;;;;;;9.55;7.10;;;15.20;72.50;;;;;;4999248;28;20512;-74
2023/05/22 04:13:30;;;;;;;8.35;6.90;;;15.20;72.70;;;;;;5000594;28;20058;-75
2023/05/22 04:15:56;;;;;;;9.57;7.40;;;15.20;72.80;;;;;;5000423;28;20041;-75
2023/05/22 04:18:21;;;;;;;9.60;6.88;;;15.20;72.60;;;;;;4983343;28;20575;-74
2023/05/22 04:20:47;;;;;;;9.40;7.93;;;15.10;72.70;;;;;;5001841;28;20040;-75
2023/05/22 04:23:12;;;;;;;8.90;7.00;;;15.20;72.90;;;;;;5014753;28;20034;-76
2023/05/22 04:25:38;;;;;;;8.40;6.93;;;15.20;72.80;;;;;;4998656;28;20041;-75
2023/05/22 04:28:04;;;;;;;11.40;7.88;;;15.20;72.80;;;;;;5000435;28;20195;-75
2023/05/22 04:30:32;;;;;;;9.73;7.53;;;15.20;72.70;;;;;;4984219;28;20500;-76
2023/05/22 04:32:59;;;;;;;9.57;7.22;;;15.20;72.90;;;;;;5000821;28;20132;-74
2023/05/22 04:35:24;;;;;;;10.82;7.60;;;15.20;72.90;;;;;;5000309;28;21206;-75
2023/05/22 04:37:50;;;;;;;8.50;6.88;;;15.20;73.00;;;;;;4982399;28;20557;-76
2023/05/22 04:40:15;;;;;;;11.38;7.18;;;15.30;73.20;;;;;;4959147;28;20049;-75
2023/05/22 04:42:41;;;;;;;8.93;6.32;;;15.30;73.10;;;;;;5009069;28;20030;-75
2023/05/22 04:45:08;;;;;;;9.95;7.25;;;15.30;73.10;;;;;;4984118;28;20049;-75
2023/05/22 04:47:36;;;;;;;8.95;7.05;;;15.30;72.90;;;;;;4996984;28;20033;-75
2023/05/22 04:50:02;;;;;;;10.10;6.88;;;15.40;72.90;;;;;;4995321;28;20030;-75
2023/05/22 04:52:28;;;;;;;9.40;7.20;;;15.40;72.80;;;;;;4981701;28;20038;-73
2023/05/22 04:54:54;;;;;;;9.27;7.20;;;15.40;72.80;;;;;;4999941;28;21748;-73
2023/05/22 04:57:20;;;;;;;9.48;7.00;;;15.50;73.10;;;;;;4994603;28;20049;-74
2023/05/22 04:59:46;;;;;;;12.75;7.45;;;15.50;73.00;;;;;;4985922;28;20041;-76
2023/05/22 05:02:12;;;;;;;12.95;7.75;;;15.60;73.00;;;;;;4981028;28;21640;-75
2023/05/22 05:04:37;;;;;;;10.75;7.25;;;15.60;73.00;;;;;;4980850;28;20049;-75
2023/05/22 05:07:03;;;;;;;10.25;7.32;;;15.70;73.10;;;;;;4997686;28;20049;-76
2023/05/22 05:09:29;;;;;;;9.93;8.20;;;15.70;72.90;;;;;;4996015;28;20053;-75
2023/05/22 05:11:55;;;;;;;11.88;8.65;;;15.70;72.90;;;;;;4993548;28;20048;-75
2023/05/22 05:14:20;;;;;;;12.80;9.00;;;15.80;73.30;;;;;;5011017;28;20176;-75
2023/05/22 05:16:46;;;;;;;12.32;8.52;;;15.80;73.30;;;;;;4997836;28;20037;-74
2023/05/22 05:19:11;;;;;;;10.77;8.27;;;15.90;73.40;;;;;;4976590;28;20040;-75
2023/05/22 05:21:38;;;;;;;10.60;8.07;;;15.90;73.60;;;;;;4994840;28;20048;-75
2023/05/22 05:24:04;;;;;;;9.00;6.97;;;16.00;73.60;;;;;;4995242;28;20046;-75
2023/05/22 05:26:30;;;;;;;10.25;8.10;;;16.00;73.40;;;;;;5014629;28;20037;-75
2023/05/22 05:28:55;;;;;;;12.68;9.30;;;16.10;73.40;;;;;;4996199;28;20060;-74
2023/05/22 05:31:22;;;;;;;13.20;8.88;;;16.20;73.30;;;;;;4980685;28;20038;-75
2023/05/22 05:33:48;;;;;;;12.30;8.10;;;16.30;73.30;;;;;;4997943;28;20116;-75
2023/05/22 05:36:15;;;;;;;10.55;8.50;;;16.30;73.60;;;;;;4981034;28;20045;-74
2023/05/22 05:38:40;;;;;;;13.15;8.88;;;16.40;73.60;;;;;;4996143;28;20782;-74
2023/05/22 05:41:06;;;;;;;15.45;8.48;;;16.40;73.70;;;;;;5003749;28;20046;-73
2023/05/22 05:43:31;;;;;;;11.57;9.45;;;16.50;73.90;;;;;;5009478;28;20643;-76
2023/05/22 05:45:57;;;;;;;12.20;9.43;;;16.60;73.90;;;;;;4995464;28;20041;-75
2023/05/22 05:48:22;;;;;;;11.30;8.55;;;16.70;73.90;;;;;;4996726;28;20029;-75
2023/05/22 05:50:48;;;;;;;17.25;9.68;;;16.80;73.70;;;;;;4981993;28;20037;-75
2023/05/22 05:53:14;;;;;;;17.67;9.45;;;16.80;73.60;;;;;;4969770;28;20530;-74
2023/05/22 05:55:40;;;;;;;10.70;8.90;;;16.90;73.90;;;;;;4994461;28;20029;-74
2023/05/22 05:58:05;;;;;;;18.75;9.73;;;17.00;74.00;;;;;;5014665;28;20041;-75
2023/05/22 06:00:31;;;;;;;14.93;9.38;;;17.10;73.90;;;;;;4996821;28;20034;-75
2023/05/22 06:02:56;;;;;;;15.23;9.48;;;17.20;73.80;;;;;;4994921;28;20065;-75
2023/05/22 06:05:22;;;;;;;16.00;9.25;;;17.30;73.80;;;;;;4996973;28;20033;-74
2023/05/22 06:07:48;;;;;;;14.02;8.52;;;17.40;73.80;;;;;;5015442;28;20053;-74
2023/05/22 06:10:14;;;;;;;10.43;8.40;;;17.50;73.60;;;;;;4993840;28;20407;-75
2023/05/22 06:12:40;;;;;;;11.27;8.95;;;17.60;73.40;;;;;;4981625;28;20033;-75
2023/05/22 06:15:07;;;;;;;14.70;8.85;;;17.70;73.20;;;;;;4979328;28;20715;-75
2023/05/22 06:17:33;;;;;;;13.25;8.40;;;17.80;72.90;;;;;;4963566;28;20086;-75
2023/05/22 06:19:59;;;;;;;12.93;8.82;;;17.90;72.80;;;;;;4965361;28;20116;-75
2023/05/22 06:22:25;;;;;;;13.88;9.30;;;18.00;72.50;;;;;;4996998;28;20025;-75
2023/05/22 06:24:53;;;;;;;10.98;8.00;;;18.20;72.40;;;;;;4977445;28;20033;-74
2023/05/22 06:27:22;;;;;;;11.70;8.48;;;18.30;72.20;;;;;;4994568;28;20033;-75
2023/05/22 06:29:51;;;;;;;15.48;7.65;;;18.40;71.90;;;;;;4997398;28;20033;-75
2023/05/22 06:32:16;;;;;;;11.23;7.88;;;18.60;71.70;;;;;;5004277;28;20073;-75
2023/05/22 06:34:43;;;;;;;13.07;7.57;;;18.70;71.30;;;;;;4981384;28;20445;-75
2023/05/22 06:37:09;;;;;;;11.48;7.82;;;18.80;71.10;;;;;;4955568;28;20125;-76
2023/05/22 06:39:35;;;;;;;15.75;8.20;;;19.00;70.80;;;;;;4969052;28;20152;-75
2023/05/22 06:42:01;;;;;;;11.40;7.95;;;19.10;70.50;;;;;;4979654;28;20038;-75
2023/05/22 06:44:26;;;;;;;14.43;8.05;;;19.30;70.90;;;;;;4980918;28;20544;-75
2023/05/22 06:46:52;;;;;;;11.93;7.80;;;19.50;69.80;;;;;;4967803;28;20040;-75
2023/05/22 06:49:18;;;;;;;13.02;7.63;;;19.60;69.50;;;;;;4983840;28;20659;-75
2023/05/22 06:51:44;;;;;;;11.60;7.43;;;19.80;69.00;;;;;;4980587;28;20045;-75
2023/05/22 06:54:11;;;;;;;10.85;7.68;;;19.90;68.70;;;;;;4995752;28;20420;-75
2023/05/22 06:56:37;;;;;;;11.02;7.00;;;20.10;68.40;;;;;;4959858;28;20080;-74
2023/05/22 06:59:02;;;;;;;9.63;6.75;;;20.20;67.90;;;;;;4997135;28;20732;-76
2023/05/22 07:01:28;;;;;;;9.85;7.13;;;20.40;67.50;;;;;;4996957;28;20136;-75
2023/05/22 07:03:56;;;;;;;11.52;7.30;;;20.60;67.10;;;;;;4979196;28;21929;-74
2023/05/22 07:06:21;;;;;;;9.80;7.28;;;20.70;66.80;;;;;;4980040;28;20045;-75
2023/05/22 07:08:47;;;;;;;9.10;7.05;;;20.90;66.30;;;;;;5015192;28;20038;-75
2023/05/22 07:11:13;;;;;;;10.13;7.63;;;21.00;65.80;;;;;;4978968;28;20539;-75
2023/05/22 07:13:38;;;;;;;8.45;6.28;;;21.20;65.60;;;;;;4993612;28;20721;-75
2023/05/22 07:16:05;;;;;;;10.35;7.55;;;21.40;65.30;;;;;;4980067;28;20477;-76
2023/05/22 07:18:30;;;;;;;9.30;6.82;;;21.50;64.80;;;;;;5012881;28;20033;-76
2023/05/22 07:20:57;;;;;;;7.70;6.43;;;21.70;64.50;;;;;;4980316;28;20570;-76
2023/05/22 07:23:22;;;;;;;9.15;6.72;;;21.80;64.10;;;;;;4978938;28;20064;-75
2023/05/22 07:25:48;;;;;;;8.63;6.80;;;22.00;64.60;;;;;;4995288;28;20663;-76
2023/05/22 07:28:13;;;;;;;8.65;6.90;;;22.10;63.50;;;;;;5016424;28;20124;-75
2023/05/22 07:30:40;;;;;;;6.63;5.93;;;22.30;63.00;;;;;;4984658;28;20075;-75
2023/05/22 07:33:05;;;;;;;7.90;6.35;;;22.40;62.60;;;;;;4983876;28;20033;-75
2023/05/22 07:35:31;;;;;;;7.18;6.18;;;22.60;62.20;;;;;;4997117;28;20064;-76
2023/05/22 07:37:56;;;;;;;11.70;6.07;;;22.70;61.60;;;;;;5016443;28;20116;-75
2023/05/22 07:40:22;;;;;;;8.10;6.55;;;22.80;61.10;;;;;;4998900;28;20053;-76
2023/05/22 07:42:47;;;;;;;8.02;5.80;;;22.90;60.90;;;;;;4997670;28;20029;-75
2023/05/22 07:45:13;;;;;;;8.60;6.25;;;23.00;60.70;;;;;;4997264;28;20113;-76
2023/05/22 07:47:38;;;;;;;9.02;6.30;;;23.10;60.30;;;;;;4998693;28;20041;-75
2023/05/22 07:50:05;;;;;;;8.02;6.32;;;23.30;59.90;;;;;;4950047;28;20112;-75
2023/05/22 07:52:31;;;;;;;8.40;6.63;;;23.50;59.80;;;;;;4982277;28;20504;-75
2023/05/22 07:54:57;;;;;;;9.23;6.28;;;23.60;59.40;;;;;;4975960;28;20041;-75
2023/05/22 07:57:23;;;;;;;9.95;6.40;;;23.70;59.10;;;;;;4978443;28;20038;-76
2023/05/22 07:59:49;;;;;;;9.27;6.90;;;23.80;58.70;;;;;;4996294;28;20084;-76
2023/05/22 08:02:16;;;;;;;8.18;6.80;;;23.90;58.50;;;;;;4982970;28;20038;-75
2023/05/22 08:04:43;;;;;;;7.97;6.55;;;24.00;58.30;;;;;;4961748;28;20123;-75
2023/05/22 08:07:08;;;;;;;10.82;6.13;;;24.10;57.90;;;;;;4983133;28;20037;-75
2023/05/22 08:09:34;;;;;;;9.27;5.70;;;24.20;57.60;;;;;;4978340;28;20084;-76
2023/05/22 08:12:00;;;;;;;9.70;5.97;;;24.30;57.50;;;;;;4983245;28;20453;-75
2023/05/22 08:14:25;;;;;;;11.18;7.15;;;24.40;57.20;;;;;;4978685;28;20034;-75
2023/05/22 08:16:51;;;;;;;7.63;6.80;;;24.40;56.90;;;;;;4979323;28;20095;-75
2023/05/22 08:19:16;;;;;;;7.18;6.40;;;24.50;56.70;;;;;;4981942;28;20041;-73
2023/05/22 08:21:42;;;;;;;6.22;5.57;;;24.60;57.40;;;;;;4990425;28;20149;-75
2023/05/22 08:24:07;;;;;;;9.77;6.45;;;24.70;56.70;;;;;;4994045;28;20101;-75
2023/05/22 08:26:33;;;;;;;10.55;6.80;;;24.80;56.40;;;;;;4993793;28;20034;-76
2023/05/22 08:29:01;;;;;;;8.18;6.47;;;24.80;56.00;;;;;;4992422;28;20030;-76
2023/05/22 08:31:28;;;;;;;9.43;5.93;;;24.90;55.90;;;;;;4992756;28;20052;-76
2023/05/22 08:34:00;;;;;;;7.88;6.63;;;25.00;55.70;;;;;;4995009;28;20046;-75
2023/05/22 08:36:30;;;;;;;9.90;6.75;;;25.10;55.50;;;;;;4996127;28;20048;-76
2023/05/22 08:38:55;;;;;;;9.45;5.90;;;25.20;55.30;;;;;;4993254;28;20121;-75
2023/05/22 08:41:21;;;;;;;10.00;6.65;;;25.20;55.00;;;;;;4991409;28;20088;-74
2023/05/22 08:43:47;;;;;;;9.43;6.07;;;25.40;54.80;;;;;;4979476;28;20115;-76
2023/05/22 08:46:14;;;;;;;7.93;6.00;;;25.40;54.70;;;;;;4978493;28;20124;-75
2023/05/22 08:48:40;;;;;;;7.38;6.32;;;25.50;54.60;;;;;;4994504;28;20780;-75
2023/05/22 08:51:06;;;;;;;7.90;5.63;;;25.70;54.50;;;;;;4995936;28;20035;-75
2023/05/22 08:53:37;;;;;;;9.18;6.40;;;25.90;54.40;;;;;;4970114;28;20042;-75
2023/05/22 08:56:07;;;;;;;8.02;6.38;;;26.00;54.20;;;;;;4991424;28;20141;-75
2023/05/22 08:58:36;;;;;;;8.48;6.03;;;26.20;53.90;;;;;;4974774;28;20539;-75
2023/05/22 09:01:01;;;;;;;9.77;6.45;;;26.30;53.60;;;;;;4963261;28;20140;-75
2023/05/22 09:03:31;;;;;;;7.32;6.43;;;26.40;53.40;;;;;;4972926;28;20044;-75
2023/05/22 09:05:58;;;;;;;9.18;5.85;;;26.60;53.40;;;;;;4945584;28;20052;-76
2023/05/22 09:08:23;;;;;;;8.02;5.95;;;26.70;53.10;;;;;;4977669;28;20121;-75
2023/05/22 09:10:49;;;;;;;8.88;6.32;;;26.80;52.90;;;;;;4962755;28;20404;-75
2023/05/22 09:13:25;;;;;;;6.57;5.78;;;27.00;52.80;;;;;;4999691;28;20045;-75
2023/05/22 09:15:50;;;;;;;7.00;5.93;;;27.10;52.50;;;;;;4979328;28;20045;-75
2023/05/22 09:18:16;;;;;;;8.10;6.28;;;27.20;52.30;;;;;;4984005;28;20041;-75
2023/05/22 09:20:41;;;;;;;6.85;6.10;;;27.40;52.20;;;;;;4983875;28;20050;-75
2023/05/22 09:23:11;;;;;;;8.30;5.90;;;27.50;51.60;;;;;;4982299;28;20080;-76
2023/05/22 09:25:36;;;;;;;8.85;6.25;;;27.60;51.40;;;;;;4976907;28;20042;-75
2023/05/22 09:28:02;;;;;;;10.40;6.38;;;27.70;51.20;;;;;;4980441;28;20083;-75
2023/05/22 09:30:28;;;;;;;6.53;5.85;;;27.80;51.10;;;;;;4976169;28;20046;-75
2023/05/22 09:32:53;;;;;;;11.02;6.30;;;28.00;50.90;;;;;;4946275;28;20041;-76
2023/05/22 09:35:19;;;;;;;9.05;6.43;;;28.10;50.60;;;;;;4964220;28;20038;-75
2023/05/22 09:37:45;;;;;;;7.13;6.40;;;28.10;50.10;;;;;;4996373;28;20034;-75
2023/05/22 09:40:12;;;;;;;9.85;6.30;;;28.20;49.90;;;;;;4965440;28;20024;-75
2023/05/22 09:42:38;;;;;;;10.88;6.28;;;28.20;49.70;;;;;;4961361;28;20515;-75
2023/05/22 09:45:07;;;;;;;7.80;6.05;;;28.40;49.60;;;;;;4974352;28;20046;-75
2023/05/22 09:47:33;;;;;;;8.93;6.13;;;28.50;49.60;;;;;;4980979;28;20064;-75
2023/05/22 09:49:59;;;;;;;9.77;6.28;;;28.70;49.50;;;;;;4964061;28;20121;-76
2023/05/22 09:52:32;;;;;;;10.02;6.40;;;28.90;49.20;;;;;;5000531;28;20026;-76
2023/05/22 09:54:59;;;;;;;7.53;5.90;;;29.00;48.80;;;;;;4963087;28;20034;-76
2023/05/22 09:57:28;;;;;;;10.05;7.00;;;29.10;48.60;;;;;;4971129;28;20125;-75
2023/05/22 09:59:56;;;;;;;8.07;6.00;;;29.30;48.40;;;;;;4977311;28;20049;-76
2023/05/22 10:02:23;;;;;;;7.47;5.88;;;29.50;48.30;;;;;;4960176;28;20071;-75
2023/05/22 10:04:49;;;;;;;9.68;5.97;;;29.70;48.10;;;;;;4996740;28;20041;-76
2023/05/22 10:07:18;;;;;;;9.20;6.20;;;29.80;47.90;;;;;;4963769;28;20030;-76
2023/05/22 10:09:44;;;;;;;8.15;5.75;;;30.00;47.60;;;;;;4975370;28;20042;-75
2023/05/22 10:12:12;;;;;;;8.00;5.88;;;30.10;47.30;;;;;;4962667;28;20095;-76
2023/05/22 10:14:37;;;;;;;6.28;5.57;;;30.30;47.20;;;;;;4945842;28;20041;-75
2023/05/22 10:17:05;;;;;;;6.85;6.15;;;30.50;46.90;;;;;;4977380;28;20072;-75
2023/05/22 10:19:31;;;;;;;8.52;6.32;;;30.70;46.50;;;;;;4975994;28;20058;-75
2023/05/22 10:21:57;;;;;;;7.75;6.60;;;30.90;46.00;;;;;;4975214;28;20378;-75
2023/05/22 10:24:23;;;;;;;7.07;5.97;;;31.00;45.80;;;;;;4976126;28;20076;-76
2023/05/22 10:26:48;;;;;;;6.25;5.43;;;31.20;45.60;;;;;;4960522;28;20057;-76
2023/05/22 10:29:17;;;;;;;7.68;5.95;;;31.20;45.40;;;;;;4979858;28;20072;-76
2023/05/22 10:32:18;;;;;;;5.75;5.25;;;31.30;45.10;;;;;;4961814;28;20037;-75
2023/05/22 10:34:56;;;;;;;9.30;6.30;;;31.50;45.30;;;;;;4964785;28;20585;-75
2023/05/22 10:37:44;;;;;;;8.18;6.18;;;31.60;44.70;;;;;;4946387;28;20038;-76
2023/05/22 10:40:11;;;;;;;7.38;5.50;;;31.80;44.40;;;;;;4975664;28;20038;-75
2023/05/22 10:42:37;;;;;;;6.85;5.38;;;31.90;44.50;;;;;;4975873;28;20069;-75
2023/05/22 10:45:05;;;;;;;8.40;5.68;;;32.10;44.30;;;;;;4975459;28;20124;-75
2023/05/22 10:47:32;;;;;;;7.03;6.20;;;32.20;44.00;;;;;;4976130;28;20115;-75
2023/05/22 10:50:08;;;;;;;6.78;6.07;;;32.30;43.50;;;;;;4956494;28;20038;-76
2023/05/22 10:52:37;;;;;;;6.00;5.50;;;32.40;43.10;;;;;;4977417;28;20066;-75
2023/05/22 10:55:09;;;;;;;10.48;6.05;;;32.40;42.80;;;;;;4975404;28;20128;-76
2023/05/22 10:57:38;;;;;;;5.90;5.40;;;32.60;43.00;;;;;;4995197;28;20046;-76
2023/05/22 11:00:14;;;;;;;9.70;5.80;;;32.70;43.20;;;;;;4968113;28;20046;-75
2023/05/22 11:02:41;;;;;;;8.38;6.13;;;32.90;43.10;;;;;;4974866;28;20492;-76
2023/05/22 11:05:33;;;;;;;6.20;5.60;;;33.10;43.00;;;;;;4957075;28;20070;-76
2023/05/22 11:08:09;;;;;;;7.43;5.85;;;33.20;42.00;;;;;;5010187;28;20038;-76
2023/05/22 11:10:53;;;;;;;7.15;5.93;;;33.40;42.10;;;;;;4980121;28;20559;-76
2023/05/22 11:13:19;;;;;;;6.85;5.65;;;33.60;41.50;;;;;;5004655;28;20055;-76
2023/05/22 11:15:44;;;;;;;6.63;5.20;;;33.70;41.80;;;;;;4995319;28;20045;-76
2023/05/22 11:18:10;;;;;;;5.60;4.72;;;33.80;41.60;;;;;;4997800;28;20041;-76
2023/05/22 11:20:36;;;;;;;10.02;5.10;;;33.90;41.50;;;;;;4992977;28;20034;-76
2023/05/22 11:23:06;;;;;;;6.32;4.90;;;34.00;41.30;;;;;;4981528;28;20038;-76
2023/05/22 11:25:36;;;;;;;6.25;5.43;;;34.20;41.10;;;;;;4993233;28;20041;-76
2023/05/22 11:28:02;;;;;;;6.22;5.57;;;34.30;40.80;;;;;;4979917;28;20045;-76
2023/05/22 11:30:29;;;;;;;7.25;5.18;;;34.50;41.00;;;;;;4996313;28;20031;-76
2023/05/22 11:32:56;;;;;;;6.90;5.03;;;34.60;40.90;;;;;;4976063;28;20099;-76
2023/05/22 11:35:22;;;;;;;6.18;5.55;;;34.80;40.50;;;;;;4993166;28;20038;-76
2023/05/22 11:37:48;;;;;;;11.38;5.68;;;34.90;39.70;;;;;;4994715;28;20523;-76
2023/05/22 11:40:15;;;;;;;5.90;5.32;;;35.00;39.30;;;;;;4982585;28;20472;-76
2023/05/22 11:42:41;;;;;;;10.50;5.63;;;34.90;38.80;;;;;;4980563;28;20069;-77
2023/05/22 11:45:06;;;;;;;9.18;5.32;;;35.00;39.00;;;;;;4996192;28;20104;-76
2023/05/22 11:47:32;;;;;;;6.57;5.22;;;35.00;38.70;;;;;;4980698;28;20045;-76
2023/05/22 11:49:58;;;;;;;5.40;4.90;;;35.10;38.50;;;;;;4963467;28;20069;-76
2023/05/22 11:52:24;;;;;;;10.80;5.90;;;35.10;38.40;;;;;;4978041;28;20034;-76
2023/05/22 11:54:52;;;;;;;6.13;5.38;;;35.20;38.30;;;;;;4994853;28;20104;-76
2023/05/22 11:57:18;;;;;;;6.82;5.05;;;35.20;37.60;;;;;;4995642;28;20221;-76
2023/05/22 11:59:47;;;;;;;5.72;5.15;;;35.20;37.50;;;;;;4988876;28;20943;-76
2023/05/22 12:02:13;;;;;;;6.82;5.10;;;35.30;37.10;;;;;;4996554;28;20807;-76
2023/05/22 12:04:38;;;;;;;6.53;4.40;;;35.50;36.90;;;;;;4996631;28;20107;-76
2023/05/22 12:07:04;;;;;;;7.43;5.07;;;35.50;36.80;;;;;;4996775;28;20026;-76
2023/05/22 12:09:29;;;;;;;7.53;4.85;;;35.60;36.80;;;;;;4993997;28;20121;-75
2023/05/22 12:11:55;;;;;;;5.65;4.97;;;35.80;36.90;;;;;;4995067;28;20038;-76
2023/05/22 12:14:27;;;;;;;6.80;5.00;;;36.00;36.70;;;;;;4979879;28;20034;-76
2023/05/22 12:16:54;;;;;;;6.55;4.57;;;36.00;35.80;;;;;;4976587;28;20038;-76
2023/05/22 12:19:20;;;;;;;6.60;5.45;;;36.00;36.20;;;;;;5004816;28;20627;-77
2023/05/22 12:21:47;;;;;;;7.10;5.55;;;36.00;36.00;;;;;;4995062;28;20121;-77
2023/05/22 12:24:13;;;;;;;5.53;4.70;;;35.90;35.70;;;;;;4980030;28;20697;-76
2023/05/22 12:26:39;;;;;;;6.50;5.10;;;36.00;35.50;;;;;;4997079;28;20053;-76
2023/05/22 12:29:04;;;;;;;5.38;4.88;;;36.00;35.50;;;;;;4996245;28;20030;-76
2023/05/22 12:31:35;;;;;;;7.97;4.80;;;36.10;35.70;;;;;;4979682;28;20092;-77
2023/05/22 12:34:02;;;;;;;5.88;5.22;;;36.20;35.50;;;;;;4992029;28;20036;-76
2023/05/22 12:36:38;;;;;;;5.30;4.90;;;36.30;35.40;;;;;;4978027;28;20061;-76
2023/05/22 12:39:08;;;;;;;7.82;4.60;;;36.50;35.00;;;;;;4963543;28;20037;-76
2023/05/22 12:41:33;;;;;;;6.47;4.78;;;36.70;35.10;;;;;;4987874;28;20047;-76
2023/05/22 12:44:00;;;;;;;6.15;4.57;;;36.70;35.20;;;;;;4978262;28;20034;-76